Time;durP1;ratioP1;P1;durP2;ratioP2;P2;SDS_P1;SDS_P2;PMS_P1;PMS_P2;Temp;Humidity;BMP_temperature;BMP_pressure;BME280_temperature;BME280_humidity;BME280_pressure;Samples;Min_cycle;Max_cycle;Signal;HPM_P1;HPM_P2
2023/05/18 00:00:01;;;;;;;5.37;2.90;;;6.70;98.00;;;;;;5071234;28;20455;-67
2023/05/18 00:02:29;;;;;;;6.70;3.17;;;6.70;98.00;;;;;;5071325;28;20463;-68
2023/05/18 00:05:00;;;;;;;8.33;2.97;;;6.60;98.00;;;;;;5071188;28;20543;-67
2023/05/18 00:07:28;;;;;;;5.07;2.67;;;6.40;98.00;;;;;;5071195;28;20483;-67
2023/05/18 00:09:55;;;;;;;6.23;3.03;;;6.40;98.00;;;;;;5070793;28;20482;-67
2023/05/18 00:12:24;;;;;;;5.23;3.10;;;6.60;98.00;;;;;;5071292;28;20496;-67
2023/05/18 00:14:51;;;;;;;9.80;3.37;;;6.80;98.00;;;;;;5071229;28;21020;-67
2023/05/18 00:17:19;;;;;;;6.30;3.17;;;6.70;98.00;;;;;;5071188;28;20967;-67
2023/05/18 00:19:46;;;;;;;9.13;3.23;;;6.40;98.00;;;;;;5071284;28;20460;-68
2023/05/18 00:22:17;;;;;;;3.70;2.50;;;6.30;98.00;;;;;;5071266;28;20468;-67
2023/05/18 00:24:45;;;;;;;7.50;3.07;;;6.40;98.00;;;;;;5071181;28;20825;-68
2023/05/18 00:27:15;;;;;;;5.80;3.20;;;6.40;98.00;;;;;;5072108;28;20566;-67
2023/05/18 00:29:42;;;;;;;9.07;3.07;;;6.30;98.00;;;;;;5078331;28;20459;-66
2023/05/18 00:32:09;;;;;;;4.20;2.50;;;6.20;98.00;;;;;;5268607;22;20539;-67
2023/05/18 00:34:36;;;;;;;6.73;2.57;;;6.10;98.00;;;;;;5038379;28;20459;-68
2023/05/18 00:37:04;;;;;;;4.90;2.27;;;6.20;98.00;;;;;;5038237;28;20824;-67
2023/05/18 00:39:32;;;;;;;4.87;2.90;;;6.10;98.00;;;;;;5037894;28;20468;-67
2023/05/18 00:41:59;;;;;;;2.33;1.93;;;5.90;98.00;;;;;;5037834;28;20523;-66
2023/05/18 00:44:26;;;;;;;5.67;2.97;;;6.00;98.00;;;;;;5038293;28;20473;-66
2023/05/18 00:46:53;;;;;;;6.10;3.13;;;6.20;98.00;;;;;;5038040;28;20478;-67
2023/05/18 00:49:21;;;;;;;4.67;2.40;;;6.40;98.00;;;;;;5037886;28;20468;-67
2023/05/18 00:51:49;;;;;;;7.13;2.50;;;6.30;98.00;;;;;;5037687;28;20460;-66
2023/05/18 00:54:19;;;;;;;4.03;2.27;;;6.30;98.00;;;;;;5037776;28;20456;-68
2023/05/18 00:56:48;;;;;;;4.67;2.27;;;6.20;98.00;;;;;;5038096;28;20461;-67
2023/05/18 00:59:17;;;;;;;3.10;2.43;;;6.20;98.00;;;;;;5038112;28;20833;-67
2023/05/18 01:01:45;;;;;;;8.33;3.07;;;6.30;98.00;;;;;;5038134;28;20819;-67
2023/05/18 01:04:13;;;;;;;5.90;2.80;;;6.00;98.00;;;;;;5037933;28;20460;-67
2023/05/18 01:06:41;;;;;;;3.73;2.53;;;5.70;98.00;;;;;;5037776;28;20949;-67
2023/05/18 01:09:10;;;;;;;6.40;3.03;;;5.60;98.00;;;;;;5037355;28;20466;-67
2023/05/18 01:11:56;;;;;;;5.80;2.93;;;5.50;98.00;;;;;;5037546;28;20453;-67
2023/05/18 01:14:31;;;;;;;4.90;2.70;;;5.70;98.00;;;;;;5036194;28;20533;-66
2023/05/18 01:17:06;;;;;;;4.40;2.43;;;5.70;98.00;;;;;;5037578;28;21009;-68
2023/05/18 01:20:15;;;;;;;4.00;2.07;;;5.60;98.00;;;;;;5037358;28;20892;-67
2023/05/18 01:23:12;;;;;;;6.70;2.83;;;5.60;98.00;;;;;;5033881;28;20945;-67
2023/05/18 01:25:50;;;;;;;3.87;2.43;;;5.50;98.00;;;;;;5036612;28;20457;-67
2023/05/18 01:28:21;;;;;;;3.20;2.23;;;5.40;98.00;;;;;;5037394;28;20830;-67
2023/05/18 01:30:49;;;;;;;6.57;2.53;;;5.50;98.00;;;;;;5035858;28;21038;-65
2023/05/18 01:33:20;;;;;;;6.60;2.60;;;5.50;98.00;;;;;;5037240;28;20462;-67
2023/05/18 01:35:47;;;;;;;3.53;2.30;;;5.50;98.00;;;;;;5037305;28;20455;-67
2023/05/18 01:38:16;;;;;;;6.40;2.30;;;5.40;98.00;;;;;;5037438;28;20568;-67
2023/05/18 01:40:49;;;;;;;5.37;3.07;;;5.50;98.00;;;;;;5033029;28;20486;-67
2023/05/18 01:43:20;;;;;;;5.70;2.17;;;5.60;98.00;;;;;;5033914;28;20464;-67
2023/05/18 01:45:55;;;;;;;5.90;2.70;;;5.60;98.00;;;;;;5033927;28;20511;-67
2023/05/18 01:48:25;;;;;;;5.87;2.97;;;5.70;98.00;;;;;;5034018;28;20845;-67
2023/05/18 01:50:55;;;;;;;8.63;2.83;;;5.50;98.00;;;;;;5033726;28;20464;-67
2023/05/18 01:53:26;;;;;;;4.13;2.70;;;5.50;98.00;;;;;;5033854;28;20541;-67
2023/05/18 01:55:55;;;;;;;6.53;2.60;;;5.50;98.00;;;;;;5033575;28;20469;-67
2023/05/18 01:58:25;;;;;;;4.33;2.53;;;5.50;98.00;;;;;;5033573;28;20545;-67
2023/05/18 02:00:52;;;;;;;5.67;2.73;;;5.40;98.00;;;;;;5033527;28;20455;-67
2023/05/18 02:03:20;;;;;;;4.97;2.40;;;5.40;98.00;;;;;;5033637;28;21013;-67
2023/05/18 02:05:47;;;;;;;2.70;2.47;;;5.40;98.00;;;;;;5033491;28;20892;-66
2023/05/18 02:08:15;;;;;;;5.93;3.00;;;5.40;98.00;;;;;;5033548;28;20484;-66
2023/05/18 02:10:42;;;;;;;10.53;3.27;;;5.20;98.00;;;;;;5033401;28;20456;-67
2023/05/18 02:13:09;;;;;;;3.10;2.20;;;5.10;98.00;;;;;;5033359;28;20462;-68
2023/05/18 02:15:37;;;;;;;4.50;2.40;;;5.20;98.00;;;;;;5033139;28;20450;-67
2023/05/18 02:18:07;;;;;;;2.80;2.13;;;5.30;98.00;;;;;;5033381;28;20473;-68
2023/05/18 02:20:36;;;;;;;3.70;2.60;;;5.30;98.00;;;;;;5033275;28;20543;-66
2023/05/18 02:23:03;;;;;;;5.17;2.80;;;5.20;98.00;;;;;;5033301;28;20534;-67
2023/05/18 02:25:30;;;;;;;4.53;2.37;;;5.10;98.00;;;;;;5033182;28;20647;-66
2023/05/18 02:27:57;;;;;;;6.03;2.80;;;5.00;98.00;;;;;;5033277;28;20486;-67
2023/05/18 02:30:24;;;;;;;4.50;2.50;;;5.00;98.00;;;;;;5033996;28;20462;-66
2023/05/18 02:32:53;;;;;;;3.00;2.23;;;5.00;98.00;;;;;;5033132;28;20514;-65
2023/05/18 02:35:20;;;;;;;3.67;2.40;;;4.90;98.00;;;;;;5032998;28;20471;-66
2023/05/18 02:37:48;;;;;;;5.70;2.73;;;4.90;98.00;;;;;;5015488;28;20463;-65
2023/05/18 02:40:16;;;;;;;4.97;2.20;;;4.90;98.00;;;;;;5032896;28;20455;-67
2023/05/18 02:42:43;;;;;;;3.57;2.63;;;5.00;98.00;;;;;;5032913;28;20589;-67
2023/05/18 02:45:11;;;;;;;5.47;2.47;;;5.00;98.00;;;;;;5032687;28;20825;-66
2023/05/18 02:47:38;;;;;;;5.10;2.63;;;5.20;98.00;;;;;;5032677;28;20493;-67
2023/05/18 02:50:08;;;;;;;2.00;1.50;;;5.00;98.00;;;;;;5032322;28;21009;-68
2023/05/18 02:52:35;;;;;;;3.90;2.40;;;4.90;98.00;;;;;;5032816;28;20816;-67
2023/05/18 02:55:02;;;;;;;3.93;2.43;;;4.70;98.00;;;;;;5032366;28;21094;-67
2023/05/18 02:57:32;;;;;;;3.03;2.10;;;4.70;98.00;;;;;;5032543;28;20972;-66
2023/05/18 03:00:00;;;;;;;2.90;2.10;;;4.70;98.00;;;;;;5032448;28;20490;-68
2023/05/18 03:02:28;;;;;;;4.70;2.60;;;4.70;98.00;;;;;;5032600;28;20959;-66
2023/05/18 03:04:56;;;;;;;4.03;2.40;;;4.70;98.00;;;;;;5032559;28;20568;-66
2023/05/18 03:07:26;;;;;;;5.30;2.40;;;4.80;98.00;;;;;;5032486;28;20493;-67
2023/05/18 03:09:54;;;;;;;4.87;2.50;;;4.70;98.00;;;;;;5032437;28;20474;-67
2023/05/18 03:12:21;;;;;;;3.90;2.13;;;4.70;98.00;;;;;;5032510;28;20555;-67
2023/05/18 03:14:48;;;;;;;3.63;2.40;;;4.70;98.00;;;;;;5032822;28;20502;-68
2023/05/18 03:17:15;;;;;;;6.30;2.37;;;4.70;98.00;;;;;;5032436;28;20455;-68
2023/05/18 03:19:42;;;;;;;3.77;2.17;;;4.70;98.00;;;;;;5032184;28;20449;-67
2023/05/18 03:22:09;;;;;;;5.90;2.67;;;4.60;98.00;;;;;;5032169;28;20472;-66
2023/05/18 03:24:39;;;;;;;5.40;2.80;;;4.60;98.00;;;;;;5032258;28;20466;-66
2023/05/18 03:27:06;;;;;;;3.60;2.03;;;4.60;98.00;;;;;;5032202;28;20833;-66
2023/05/18 03:29:34;;;;;;;4.33;2.60;;;4.50;98.00;;;;;;5032039;28;21024;-67
2023/05/18 03:32:02;;;;;;;3.00;2.13;;;4.50;98.00;;;;;;5032045;28;20467;-67
2023/05/18 03:34:29;;;;;;;3.17;2.37;;;4.50;98.00;;;;;;5031851;28;20509;-66
2023/05/18 03:36:56;;;;;;;2.97;2.20;;;4.60;98.00;;;;;;5031694;28;20456;-67
2023/05/18 03:39:24;;;;;;;4.57;2.60;;;4.60;98.00;;;;;;5031952;28;20466;-67
2023/05/18 03:41:52;;;;;;;4.30;2.57;;;4.70;98.00;;;;;;5030271;28;20830;-66
2023/05/18 03:44:19;;;;;;;3.83;2.40;;;4.60;98.00;;;;;;5031786;28;20467;-68
2023/05/18 03:46:46;;;;;;;4.50;2.73;;;4.80;98.00;;;;;;5031497;28;20992;-67
2023/05/18 03:49:14;;;;;;;3.90;2.47;;;4.60;98.00;;;;;;5031629;28;20483;-67
2023/05/18 03:51:41;;;;;;;3.87;2.27;;;4.60;98.00;;;;;;5031838;28;20943;-67
2023/05/18 03:54:08;;;;;;;2.93;2.17;;;4.50;98.00;;;;;;5031332;28;20469;-67
2023/05/18 03:56:35;;;;;;;3.70;2.30;;;4.40;98.00;;;;;;5031492;28;20536;-67
2023/05/18 03:59:05;;;;;;;5.80;2.17;;;4.30;98.00;;;;;;5031572;28;20459;-68
2023/05/18 04:01:32;;;;;;;5.00;2.10;;;4.40;98.00;;;;;;5031274;28;20472;-67
2023/05/18 04:04:00;;;;;;;4.53;2.73;;;4.50;98.00;;;;;;5030908;28;20455;-69
2023/05/18 04:06:27;;;;;;;4.67;2.77;;;4.40;98.00;;;;;;5031368;28;20462;-65
2023/05/18 04:08:54;;;;;;;8.73;2.87;;;4.50;98.00;;;;;;5031179;28;20486;-67
2023/05/18 04:11:21;;;;;;;3.00;2.13;;;4.60;98.00;;;;;;5031317;28;20548;-68
2023/05/18 04:13:49;;;;;;;4.03;2.30;;;4.50;98.00;;;;;;5031220;28;20467;-66
2023/05/18 04:16:18;;;;;;;3.70;2.10;;;4.50;98.00;;;;;;5031142;28;20459;-66
2023/05/18 04:18:45;;;;;;;5.17;2.20;;;4.50;98.00;;;;;;5031582;28;20471;-68
2023/05/18 04:21:12;;;;;;;2.87;2.03;;;4.60;98.00;;;;;;5031270;28;21008;-67
2023/05/18 04:23:39;;;;;;;3.30;2.07;;;4.70;98.00;;;;;;5031232;28;20453;-67
2023/05/18 04:26:07;;;;;;;4.57;2.50;;;4.70;98.00;;;;;;5031028;28;20493;-66
2023/05/18 04:28:36;;;;;;;4.67;3.17;;;4.80;98.00;;;;;;5030882;28;20932;-68
2023/05/18 04:31:03;;;;;;;2.90;2.40;;;4.80;98.00;;;;;;5031064;28;20469;-66
2023/05/18 04:33:32;;;;;;;2.33;1.90;;;4.70;98.00;;;;;;5031091;28;20657;-67
2023/05/18 04:36:03;;;;;;;6.30;2.80;;;4.70;98.00;;;;;;5031285;28;20481;-67
2023/05/18 04:38:31;;;;;;;7.67;3.47;;;4.80;98.00;;;;;;5031085;28;21019;-67
2023/05/18 04:40:59;;;;;;;5.60;2.60;;;4.80;98.00;;;;;;5031024;28;20642;-67
2023/05/18 04:43:27;;;;;;;7.43;2.60;;;5.00;98.00;;;;;;5031142;28;20918;-67
2023/05/18 04:45:54;;;;;;;5.43;2.50;;;4.90;98.00;;;;;;5030837;28;20456;-67
2023/05/18 04:48:21;;;;;;;7.80;3.13;;;4.90;98.00;;;;;;5030990;28;20496;-67
2023/05/18 04:50:53;;;;;;;5.30;2.60;;;5.00;98.00;;;;;;5030993;28;20823;-68
2023/05/18 04:53:20;;;;;;;5.80;2.87;;;5.10;98.00;;;;;;5031034;28;20470;-67
2023/05/18 04:55:48;;;;;;;7.23;2.60;;;5.20;98.00;;;;;;5030795;28;20461;-67
2023/05/18 04:58:16;;;;;;;5.90;2.70;;;5.20;98.00;;;;;;5030948;28;20967;-67
2023/05/18 05:00:43;;;;;;;7.20;2.47;;;5.30;98.00;;;;;;5030748;28;20460;-66
2023/05/18 05:03:10;;;;;;;4.93;2.53;;;5.40;98.00;;;;;;5030801;28;20460;-66
2023/05/18 05:05:37;;;;;;;6.70;3.07;;;5.30;98.00;;;;;;5030573;28;20455;-66
2023/05/18 05:08:06;;;;;;;4.27;2.67;;;5.40;98.00;;;;;;5030645;28;21060;-68
2023/05/18 05:10:33;;;;;;;4.73;2.77;;;5.40;98.00;;;;;;5030781;28;21097;-66
2023/05/18 05:13:00;;;;;;;5.23;2.90;;;5.50;98.00;;;;;;5030985;28;20459;-66
2023/05/18 05:15:27;;;;;;;6.53;2.90;;;5.60;98.00;;;;;;5034612;28;20464;-67
2023/05/18 05:17:54;;;;;;;6.70;3.07;;;5.80;98.00;;;;;;5034549;28;20519;-66
2023/05/18 05:20:22;;;;;;;4.90;2.57;;;5.80;98.00;;;;;;5034307;28;20511;-67
2023/05/18 05:22:49;;;;;;;6.00;2.77;;;6.00;98.00;;;;;;5034238;28;20532;-65
2023/05/18 05:25:17;;;;;;;6.33;2.87;;;6.10;98.00;;;;;;5034308;28;20504;-66
2023/05/18 05:27:44;;;;;;;4.73;2.60;;;6.30;98.00;;;;;;5034181;28;20968;-65
2023/05/18 05:30:12;;;;;;;6.60;2.10;;;6.50;98.00;;;;;;5034181;28;20456;-65
2023/05/18 05:32:39;;;;;;;4.33;2.50;;;6.70;98.00;;;;;;5034019;28;20472;-66
2023/05/18 05:35:07;;;;;;;7.50;3.40;;;6.90;98.00;;;;;;5033962;28;20472;-66
2023/05/18 05:37:35;;;;;;;6.17;3.03;;;6.90;98.00;;;;;;5034110;28;20461;-64
2023/05/18 05:40:05;;;;;;;6.97;3.50;;;7.00;98.00;;;;;;5033921;28;20527;-65
2023/05/18 05:42:33;;;;;;;8.80;3.60;;;7.00;98.00;;;;;;5034231;28;20973;-65
2023/05/18 05:45:00;;;;;;;6.77;3.50;;;7.10;98.00;;;;;;5033828;28;20508;-66
2023/05/18 05:47:28;;;;;;;7.53;3.40;;;7.10;98.00;;;;;;5033957;28;20472;-65
2023/05/18 05:49:55;;;;;;;5.20;3.20;;;7.10;98.00;;;;;;5033773;28;20491;-65
2023/05/18 05:52:22;;;;;;;6.27;2.80;;;7.10;98.00;;;;;;5034290;28;20944;-65
2023/05/18 05:54:50;;;;;;;7.50;3.53;;;7.30;98.00;;;;;;5034183;28;20464;-66
2023/05/18 05:57:17;;;;;;;7.13;3.37;;;7.40;98.00;;;;;;5033245;28;20820;-65
2023/05/18 05:59:46;;;;;;;4.33;3.10;;;7.60;98.00;;;;;;5033837;28;20873;-65
2023/05/18 06:02:13;;;;;;;7.90;3.67;;;7.70;98.00;;;;;;5033556;28;20867;-68
2023/05/18 06:04:40;;;;;;;11.90;3.83;;;7.90;98.00;;;;;;5033669;28;20465;-68
2023/05/18 06:07:07;;;;;;;12.80;3.97;;;8.10;98.00;;;;;;5033702;28;20498;-68
2023/05/18 06:09:34;;;;;;;9.97;3.80;;;8.10;98.00;;;;;;5033875;28;20540;-68
2023/05/18 06:12:01;;;;;;;18.60;6.20;;;8.30;98.00;;;;;;5033548;28;20519;-69
2023/05/18 06:14:29;;;;;;;9.70;4.37;;;8.50;98.00;;;;;;5033452;28;20458;-68
2023/05/18 06:16:58;;;;;;;10.27;4.97;;;8.60;98.00;;;;;;5033381;28;20469;-68
2023/05/18 06:19:25;;;;;;;7.90;3.57;;;8.70;98.00;;;;;;5032213;28;20469;-68
2023/05/18 06:21:52;;;;;;;8.20;3.53;;;8.70;98.00;;;;;;5033222;28;20500;-68
2023/05/18 06:24:20;;;;;;;10.33;3.63;;;8.80;98.00;;;;;;5032990;28;20454;-68
2023/05/18 06:26:48;;;;;;;4.93;2.80;;;8.80;98.00;;;;;;5032465;28;20661;-68
2023/05/18 06:29:15;;;;;;;7.10;2.83;;;9.00;98.00;;;;;;5033007;28;20493;-68
2023/05/18 06:31:42;;;;;;;7.83;2.37;;;9.10;98.00;;;;;;5033040;28;20840;-68
2023/05/18 06:34:10;;;;;;;4.20;2.70;;;9.20;98.00;;;;;;5032993;28;20481;-68
2023/05/18 06:36:38;;;;;;;5.50;3.03;;;9.30;98.00;;;;;;5033045;28;20485;-68
2023/05/18 06:39:05;;;;;;;6.23;2.60;;;9.50;98.00;;;;;;5033106;28;20532;-68
2023/05/18 06:41:33;;;;;;;4.43;2.50;;;9.60;98.00;;;;;;5033223;28;20540;-70
2023/05/18 06:44:01;;;;;;;4.67;2.50;;;9.70;98.00;;;;;;5033158;28;20578;-69
2023/05/18 06:46:28;;;;;;;7.57;2.73;;;9.90;98.00;;;;;;5032923;28;20452;-70
2023/05/18 06:48:56;;;;;;;6.63;2.90;;;10.10;98.00;;;;;;5033240;28;20891;-70
2023/05/18 06:51:25;;;;;;;8.03;2.90;;;10.30;98.00;;;;;;5033975;28;20463;-69
2023/05/18 06:53:55;;;;;;;4.67;2.40;;;10.40;98.00;;;;;;5032856;28;20449;-70
2023/05/18 06:56:23;;;;;;;7.67;2.73;;;10.60;98.00;;;;;;5032406;28;20943;-70
2023/05/18 06:58:50;;;;;;;5.30;2.60;;;10.70;98.00;;;;;;5033074;28;20493;-70
2023/05/18 07:01:18;;;;;;;7.17;2.70;;;10.80;98.00;;;;;;5032863;28;20516;-69
2023/05/18 07:03:45;;;;;;;4.00;2.43;;;10.90;98.00;;;;;;5032759;28;20532;-70
2023/05/18 07:06:12;;;;;;;4.20;2.33;;;11.00;98.00;;;;;;5032682;28;20455;-70
2023/05/18 07:08:40;;;;;;;8.70;3.13;;;11.10;98.00;;;;;;5032665;28;20487;-70
2023/05/18 07:11:08;;;;;;;7.43;2.57;;;11.20;98.00;;;;;;5032580;28;20515;-69
2023/05/18 07:13:36;;;;;;;4.20;2.70;;;11.30;98.00;;;;;;5032459;28;20450;-69
2023/05/18 07:16:03;;;;;;;5.60;2.57;;;11.40;98.00;;;;;;5032289;28;20458;-70
2023/05/18 07:18:30;;;;;;;5.77;2.80;;;11.40;98.00;;;;;;5032397;28;20797;-70
2023/05/18 07:20:57;;;;;;;5.93;3.60;;;11.60;98.00;;;;;;5031851;28;20461;-69
2023/05/18 07:23:24;;;;;;;4.80;2.30;;;11.80;98.00;;;;;;5037433;28;20459;-69
2023/05/18 07:25:54;;;;;;;5.57;2.60;;;11.90;98.00;;;;;;5051946;28;20814;-70
2023/05/18 07:28:24;;;;;;;6.90;2.50;;;12.00;98.00;;;;;;5051592;28;20465;-70
2023/05/18 07:30:51;;;;;;;4.50;2.60;;;12.20;98.00;;;;;;5052513;28;20514;-71
2023/05/18 07:33:18;;;;;;;4.03;2.63;;;12.30;98.00;;;;;;5052302;28;20474;-70
2023/05/18 07:35:46;;;;;;;8.13;2.93;;;12.40;98.00;;;;;;5050511;28;20460;-70
2023/05/18 07:38:13;;;;;;;4.53;2.73;;;12.50;98.00;;;;;;5051407;28;20459;-70
2023/05/18 07:40:40;;;;;;;3.00;2.33;;;12.60;98.00;;;;;;5052178;28;20451;-70
2023/05/18 07:43:09;;;;;;;4.70;2.33;;;12.70;98.00;;;;;;5052294;28;20832;-70
2023/05/18 07:45:36;;;;;;;5.57;2.90;;;12.80;98.00;;;;;;5052229;28;20469;-70
2023/05/18 07:48:03;;;;;;;3.27;2.27;;;13.00;98.00;;;;;;5051115;28;20468;-71
2023/05/18 07:50:30;;;;;;;6.53;2.60;;;13.10;98.00;;;;;;5051636;28;20857;-70
2023/05/18 07:52:58;;;;;;;4.83;2.60;;;13.10;98.00;;;;;;5052380;28;20446;-70
2023/05/18 07:55:25;;;;;;;4.10;2.70;;;13.20;98.00;;;;;;5051028;28;20476;-71
2023/05/18 07:57:52;;;;;;;5.70;3.07;;;13.30;98.00;;;;;;5052690;28;20999;-70
2023/05/18 08:00:22;;;;;;;4.10;2.50;;;13.40;98.00;;;;;;5052064;28;20463;-70
2023/05/18 08:02:49;;;;;;;4.23;2.73;;;13.50;98.00;;;;;;5051085;28;20519;-71
2023/05/18 08:05:17;;;;;;;3.70;2.30;;;13.70;98.00;;;;;;5052074;28;20453;-71
2023/05/18 08:07:44;;;;;;;5.70;2.47;;;13.80;98.00;;;;;;5050889;28;20452;-71
2023/05/18 08:10:12;;;;;;;13.00;2.77;;;13.90;98.00;;;;;;5051635;28;20486;-71
2023/05/18 08:12:39;;;;;;;5.37;2.53;;;14.00;98.00;;;;;;5052003;28;20479;-70
2023/05/18 08:15:08;;;;;;;5.00;2.90;;;14.10;98.00;;;;;;5050561;28;20574;-72
2023/05/18 08:17:38;;;;;;;7.20;2.83;;;14.30;98.00;;;;;;5051912;28;20952;-69
2023/05/18 08:20:07;;;;;;;4.93;2.90;;;14.30;98.00;;;;;;5050653;28;20452;-69
2023/05/18 08:22:34;;;;;;;4.20;2.63;;;14.40;98.00;;;;;;5051883;28;20456;-65
2023/05/18 08:25:01;;;;;;;5.23;2.67;;;14.50;98.00;;;;;;5051823;28;20464;-65
2023/05/18 08:27:29;;;;;;;6.67;2.57;;;14.60;98.00;;;;;;5051742;28;20518;-65
2023/05/18 08:29:56;;;;;;;6.93;2.73;;;14.70;98.00;;;;;;5048729;28;20490;-64
2023/05/18 08:32:23;;;;;;;3.90;2.63;;;14.90;98.00;;;;;;5050377;28;20466;-66
2023/05/18 08:34:53;;;;;;;7.20;2.70;;;15.00;98.00;;;;;;5051914;28;20457;-65
2023/05/18 08:37:20;;;;;;;6.50;3.43;;;15.10;98.00;;;;;;5050395;28;20464;-66
2023/05/18 08:39:48;;;;;;;6.47;2.67;;;15.30;98.00;;;;;;5051789;28;20518;-66
2023/05/18 08:42:20;;;;;;;6.30;2.93;;;15.50;98.00;;;;;;5050331;28;20460;-66
2023/05/18 08:44:51;;;;;;;5.80;2.90;;;15.70;98.00;;;;;;5051751;28;20500;-66
2023/05/18 08:47:24;;;;;;;7.13;2.40;;;15.80;98.00;;;;;;5051590;28;20468;-66
2023/05/18 08:49:55;;;;;;;5.57;2.90;;;15.90;98.00;;;;;;5054677;28;20871;-66
2023/05/18 08:52:26;;;;;;;4.30;2.53;;;15.90;97.40;;;;;;5055679;28;20531;-68
2023/05/18 08:54:55;;;;;;;8.17;2.67;;;16.00;96.40;;;;;;5055730;28;20456;-69
2023/05/18 08:57:23;;;;;;;8.57;3.10;;;16.00;98.00;;;;;;5055780;28;20464;-68
2023/05/18 08:59:53;;;;;;;5.90;3.07;;;16.20;98.00;;;;;;5054244;28;20499;-67
2023/05/18 09:02:20;;;;;;;9.50;3.47;;;16.20;98.00;;;;;;5055425;28;20463;-68
2023/05/18 09:04:48;;;;;;;9.73;3.03;;;16.10;95.70;;;;;;5055182;28;20460;-69
2023/05/18 09:07:17;;;;;;;3.43;2.60;;;16.10;97.80;;;;;;5055187;28;20457;-68
2023/05/18 09:09:46;;;;;;;5.20;2.90;;;16.20;94.40;;;;;;5054945;28;20584;-68
2023/05/18 09:12:14;;;;;;;4.40;2.40;;;16.20;96.90;;;;;;5055062;28;20461;-68
2023/05/18 09:14:43;;;;;;;6.50;3.07;;;16.30;98.00;;;;;;5055009;28;20536;-69
2023/05/18 09:17:10;;;;;;;5.23;2.57;;;16.60;95.50;;;;;;5055141;28;20453;-68
2023/05/18 09:19:37;;;;;;;7.83;3.37;;;16.80;94.40;;;;;;5053861;28;20511;-68
2023/05/18 09:22:05;;;;;;;3.80;2.40;;;17.00;94.30;;;;;;5055106;28;20457;-68
2023/05/18 09:24:36;;;;;;;5.03;2.90;;;17.10;93.40;;;;;;5055118;28;20457;-68
2023/05/18 09:27:04;;;;;;;6.23;3.13;;;17.00;93.20;;;;;;5053787;28;20458;-67
2023/05/18 09:29:33;;;;;;;5.17;3.00;;;17.10;93.70;;;;;;5053938;28;20485;-68
2023/05/18 09:32:03;;;;;;;6.53;3.03;;;17.20;94.10;;;;;;5054738;28;20469;-69
2023/05/18 09:34:40;;;;;;;4.97;2.73;;;17.30;93.00;;;;;;5054892;28;21003;-68
2023/05/18 09:37:07;;;;;;;5.07;3.03;;;17.40;93.40;;;;;;5054906;28;20544;-69
2023/05/18 09:39:36;;;;;;;7.80;2.90;;;17.50;93.20;;;;;;5053599;28;20814;-66
2023/05/18 09:42:04;;;;;;;5.93;3.40;;;17.40;92.90;;;;;;5054629;28;20485;-66
2023/05/18 09:44:34;;;;;;;6.90;3.00;;;17.50;93.70;;;;;;5054633;28;20460;-66
2023/05/18 09:47:03;;;;;;;5.50;2.73;;;17.60;93.40;;;;;;5054684;28;20458;-66
2023/05/18 09:49:31;;;;;;;5.40;3.10;;;17.80;92.40;;;;;;5054743;28;20481;-66
2023/05/18 09:51:59;;;;;;;4.47;2.77;;;17.90;93.80;;;;;;5054591;28;20461;-65
2023/05/18 09:54:27;;;;;;;6.33;3.03;;;18.00;92.20;;;;;;5054338;28;20533;-65
2023/05/18 09:56:57;;;;;;;8.27;2.93;;;18.20;92.10;;;;;;5054229;28;20515;-66
2023/05/18 09:59:24;;;;;;;8.03;2.97;;;18.30;91.60;;;;;;5054047;28;20511;-66
2023/05/18 10:02:01;;;;;;;4.80;3.17;;;18.40;90.80;;;;;;5035249;28;20450;-66
2023/05/18 10:04:39;;;;;;;4.47;2.73;;;18.40;91.10;;;;;;5054149;28;20454;-66
2023/05/18 10:07:12;;;;;;;6.10;3.03;;;18.10;90.20;;;;;;5053733;28;20457;-66
2023/05/18 10:09:40;;;;;;;8.57;3.63;;;18.10;90.90;;;;;;5052010;28;20486;-66
2023/05/18 10:12:12;;;;;;;5.90;3.10;;;18.00;91.00;;;;;;5052446;28;20541;-66
2023/05/18 10:14:41;;;;;;;6.20;3.63;;;18.10;90.60;;;;;;5054031;28;20454;-66
2023/05/18 10:17:10;;;;;;;5.87;3.00;;;18.20;91.00;;;;;;5052990;28;21193;-66
2023/05/18 10:19:40;;;;;;;8.83;4.13;;;18.20;88.50;;;;;;5054039;28;20476;-66
2023/05/18 10:22:08;;;;;;;8.70;4.33;;;18.30;90.80;;;;;;5053994;28;20509;-66
2023/05/18 10:24:38;;;;;;;6.57;3.60;;;18.60;90.80;;;;;;5053988;28;20450;-66
2023/05/18 10:27:08;;;;;;;11.73;4.47;;;18.60;89.70;;;;;;5053822;28;20552;-66
2023/05/18 10:29:37;;;;;;;9.03;4.00;;;18.80;90.50;;;;;;5053752;28;20485;-66
2023/05/18 10:32:05;;;;;;;6.63;3.07;;;19.00;89.60;;;;;;5053606;28;20473;-66
2023/05/18 10:34:33;;;;;;;7.27;3.97;;;19.20;89.30;;;;;;5053804;28;20454;-66
2023/05/18 10:37:03;;;;;;;8.40;4.27;;;19.40;88.60;;;;;;5053777;28;20458;-66
2023/05/18 10:39:33;;;;;;;4.13;3.00;;;19.60;88.60;;;;;;5053884;28;20839;-66
2023/05/18 10:42:02;;;;;;;4.80;2.77;;;19.80;88.10;;;;;;5053928;28;20876;-66
2023/05/18 10:44:31;;;;;;;14.97;2.97;;;19.70;85.20;;;;;;5053720;28;20457;-66
2023/05/18 10:46:59;;;;;;;4.03;2.67;;;19.80;88.30;;;;;;5053583;28;20449;-66
2023/05/18 10:49:30;;;;;;;3.90;2.50;;;19.90;84.70;;;;;;5053413;28;20464;-66
2023/05/18 10:51:59;;;;;;;8.80;3.20;;;19.70;84.70;;;;;;5053181;28;20462;-66
2023/05/18 10:54:28;;;;;;;6.30;2.90;;;19.80;86.40;;;;;;5053072;28;20463;-66
2023/05/18 10:56:55;;;;;;;13.97;2.80;;;19.90;85.40;;;;;;5053071;28;20458;-66
2023/05/18 10:59:23;;;;;;;4.23;2.63;;;20.10;86.90;;;;;;5052946;28;20466;-66
2023/05/18 11:01:52;;;;;;;6.43;2.87;;;20.30;84.80;;;;;;5052860;28;20464;-66
2023/05/18 11:04:25;;;;;;;4.30;2.90;;;20.40;85.80;;;;;;5053079;28;20454;-67
2023/05/18 11:06:58;;;;;;;11.73;2.87;;;20.60;86.50;;;;;;5052955;28;20505;-66
2023/05/18 11:09:26;;;;;;;7.63;2.80;;;20.90;85.00;;;;;;5052946;28;20507;-66
2023/05/18 11:11:56;;;;;;;6.03;2.93;;;21.00;83.80;;;;;;5052772;28;20808;-67
2023/05/18 11:14:28;;;;;;;6.47;2.87;;;20.90;83.00;;;;;;5051753;28;20453;-66
2023/05/18 11:17:16;;;;;;;8.90;2.93;;;21.10;84.30;;;;;;5052686;28;20461;-67
2023/05/18 11:20:16;;;;;;;4.70;2.57;;;21.40;83.00;;;;;;5051812;28;20549;-66
2023/05/18 11:22:50;;;;;;;5.20;2.33;;;21.50;82.90;;;;;;5052826;28;20484;-67
2023/05/18 11:25:39;;;;;;;3.57;2.70;;;21.70;83.20;;;;;;5052806;28;20453;-67
2023/05/18 11:28:08;;;;;;;3.53;2.50;;;21.80;80.60;;;;;;5052623;28;20458;-66
2023/05/18 11:30:50;;;;;;;7.10;3.00;;;22.00;81.40;;;;;;5052688;28;20488;-74
2023/05/18 11:33:25;;;;;;;7.43;2.93;;;22.10;80.00;;;;;;5052749;28;20545;-71
2023/05/18 11:36:23;;;;;;;8.10;3.43;;;22.10;80.70;;;;;;5051566;28;20465;-71
2023/05/18 11:38:54;;;;;;;5.90;2.90;;;21.90;79.50;;;;;;5051923;28;20462;-72
2023/05/18 11:41:35;;;;;;;4.13;2.70;;;22.00;81.70;;;;;;5052178;28;20458;-72
2023/05/18 11:44:16;;;;;;;4.60;3.00;;;22.40;79.90;;;;;;5052409;28;20463;-72
2023/05/18 11:47:00;;;;;;;3.50;2.40;;;22.70;80.20;;;;;;5052097;28;20453;-73
2023/05/18 11:49:28;;;;;;;4.70;3.13;;;22.50;79.20;;;;;;5052182;28;20486;-73
2023/05/18 11:52:05;;;;;;;6.00;3.00;;;22.70;79.30;;;;;;5052043;28;20489;-72
2023/05/18 11:54:46;;;;;;;4.20;2.67;;;22.90;79.00;;;;;;5052221;28;20457;-72
2023/05/18 11:57:16;;;;;;;5.70;2.83;;;22.60;78.40;;;;;;5052035;28;20764;-72
2023/05/18 11:59:45;;;;;;;4.67;2.80;;;22.00;77.90;;;;;;5052190;28;20450;-71
2023/05/18 12:02:19;;;;;;;3.70;2.50;;;22.10;78.70;;;;;;5051908;28;20450;-71
2023/05/18 12:04:49;;;;;;;6.00;3.77;;;22.30;79.60;;;;;;5052034;28;20523;-72
2023/05/18 12:07:19;;;;;;;4.13;2.80;;;22.20;77.40;;;;;;5051921;28;20458;-72
2023/05/18 12:09:47;;;;;;;4.13;2.77;;;22.30;79.90;;;;;;5052018;28;20485;-72
2023/05/18 12:12:18;;;;;;;5.53;2.87;;;22.60;79.80;;;;;;5050620;28;21117;-71
2023/05/18 12:14:52;;;;;;;6.63;2.60;;;22.60;78.80;;;;;;5051960;28;20496;-72
2023/05/18 12:17:19;;;;;;;5.93;3.50;;;22.50;79.40;;;;;;5051851;28;20532;-71
2023/05/18 12:19:48;;;;;;;6.20;2.97;;;22.50;80.10;;;;;;5052040;28;20548;-72
2023/05/18 12:22:17;;;;;;;4.83;2.70;;;22.50;79.60;;;;;;5051795;28;20457;-72
2023/05/18 12:24:44;;;;;;;3.90;2.40;;;22.70;77.50;;;;;;5051430;28;20463;-72
2023/05/18 12:27:12;;;;;;;4.53;2.90;;;23.10;80.70;;;;;;5050618;28;20461;-72
2023/05/18 12:29:40;;;;;;;4.83;3.13;;;22.80;76.50;;;;;;5052193;28;20457;-72
2023/05/18 12:32:09;;;;;;;6.20;2.80;;;22.80;77.50;;;;;;5051523;28;20497;-72
2023/05/18 12:34:37;;;;;;;4.47;2.60;;;22.70;78.40;;;;;;5051859;28;20465;-72
2023/05/18 12:37:06;;;;;;;5.17;3.10;;;22.70;78.30;;;;;;5051466;28;20458;-72
2023/05/18 12:39:35;;;;;;;7.80;3.10;;;22.50;78.30;;;;;;5051680;28;20461;-71
2023/05/18 12:42:13;;;;;;;5.00;2.70;;;22.20;77.80;;;;;;5051507;28;20454;-71
2023/05/18 12:44:43;;;;;;;3.07;2.27;;;21.50;78.40;;;;;;5051768;28;20540;-71
2023/05/18 12:47:11;;;;;;;9.50;2.50;;;21.20;80.60;;;;;;5051498;28;20461;-71
2023/05/18 12:49:39;;;;;;;4.10;2.30;;;21.20;81.30;;;;;;5050445;28;20944;-71
2023/05/18 12:52:11;;;;;;;5.07;2.70;;;21.80;82.20;;;;;;5051433;28;20485;-70
2023/05/18 12:54:57;;;;;;;8.83;2.67;;;21.80;79.60;;;;;;5051562;28;20548;-71
2023/05/18 12:57:29;;;;;;;6.50;2.80;;;21.60;79.20;;;;;;5051411;28;20469;-70
2023/05/18 12:59:57;;;;;;;6.97;3.00;;;22.00;80.60;;;;;;5051595;28;20997;-71
2023/05/18 13:02:32;;;;;;;5.80;3.03;;;22.60;78.30;;;;;;5051459;28;20944;-72